sensor_id;sensor_type;location;lat;lon;timestamp;P1;durP1;ratioP1;P2;durP2;ratioP2
6475;SDS011;3271;51.910;5.840;2023-08-06T00:02:14;2.97;;;2.72;;
6475;SDS011;3271;51.910;5.840;2023-08-06T00:04:40;3.72;;;3.38;;
6475;SDS011;3271;51.910;5.840;2023-08-06T00:07:06;3.70;;;3.40;;
6475;SDS011;3271;51.910;5.840;2023-08-06T00:09:32;3.45;;;3.15;;
6475;SDS011;3271;51.910;5.840;2023-08-06T00:11:58;5.22;;;3.47;;
6475;SDS011;3271;51.910;5.840;2023-08-06T00:14:24;3.53;;;3.03;;
6475;SDS011;3271;51.910;5.840;2023-08-06T00:16:49;4.43;;;3.90;;
6475;SDS011;3271;51.910;5.840;2023-08-06T00:19:15;5.95;;;4.25;;
6475;SDS011;3271;51.910;5.840;2023-08-06T00:21:41;3.72;;;3.20;;
6475;SDS011;3271;51.910;5.840;2023-08-06T00:24:07;3.67;;;3.38;;
6475;SDS011;3271;51.910;5.840;2023-08-06T00:26:33;3.88;;;2.92;;
6475;SDS011;3271;51.910;5.840;2023-08-06T00:28:59;4.13;;;3.63;;
6475;SDS011;3271;51.910;5.840;2023-08-06T00:31:25;5.57;;;3.92;;
6475;SDS011;3271;51.910;5.840;2023-08-06T00:33:51;5.07;;;3.45;;
6475;SDS011;3271;51.910;5.840;2023-08-06T00:36:17;4.85;;;3.63;;
6475;SDS011;3271;51.910;5.840;2023-08-06T00:38:43;4.32;;;3.17;;
6475;SDS011;3271;51.910;5.840;2023-08-06T00:41:09;4.13;;;3.47;;
6475;SDS011;3271;51.910;5.840;2023-08-06T00:43:35;4.00;;;3.70;;
6475;SDS011;3271;51.910;5.840;2023-08-06T00:46:01;4.15;;;3.75;;
6475;SDS011;3271;51.910;5.840;2023-08-06T00:48:27;4.53;;;4.13;;
6475;SDS011;3271;51.910;5.840;2023-08-06T00:50:53;4.82;;;4.05;;
6475;SDS011;3271;51.910;5.840;2023-08-06T00:53:19;8.15;;;4.15;;
6475;SDS011;3271;51.910;5.840;2023-08-06T00:55:45;4.30;;;3.60;;
6475;SDS011;3271;51.910;5.840;2023-08-06T00:58:11;3.60;;;3.28;;
6475;SDS011;3271;51.910;5.840;2023-08-06T01:00:37;4.03;;;3.72;;
6475;SDS011;3271;51.910;5.840;2023-08-06T01:03:04;4.00;;;2.90;;
6475;SDS011;3271;51.910;5.840;2023-08-06T01:05:30;3.55;;;2.97;;
6475;SDS011;3271;51.910;5.840;2023-08-06T01:10:51;3.75;;;3.35;;
6475;SDS011;3271;51.910;5.840;2023-08-06T01:15:54;3.72;;;3.22;;
6475;SDS011;3271;51.910;5.840;2023-08-06T01:18:22;4.30;;;3.38;;
6475;SDS011;3271;51.910;5.840;2023-08-06T01:20:48;4.15;;;3.75;;
6475;SDS011;3271;51.910;5.840;2023-08-06T01:23:15;3.50;;;3.05;;
6475;SDS011;3271;51.910;5.840;2023-08-06T01:25:44;7.43;;;3.90;;
6475;SDS011;3271;51.910;5.840;2023-08-06T01:28:14;3.85;;;3.45;;
6475;SDS011;3271;51.910;5.840;2023-08-06T01:30:42;4.10;;;3.70;;
6475;SDS011;3271;51.910;5.840;2023-08-06T01:33:09;3.78;;;3.47;;
6475;SDS011;3271;51.910;5.840;2023-08-06T01:35:35;4.00;;;3.60;;
6475;SDS011;3271;51.910;5.840;2023-08-06T01:38:03;6.57;;;4.32;;
6475;SDS011;3271;51.910;5.840;2023-08-06T01:40:29;4.88;;;4.38;;
6475;SDS011;3271;51.910;5.840;2023-08-06T01:42:55;4.43;;;4.00;;
6475;SDS011;3271;51.910;5.840;2023-08-06T01:45:21;5.00;;;4.55;;
6475;SDS011;3271;51.910;5.840;2023-08-06T01:47:47;6.28;;;5.50;;
6475;SDS011;3271;51.910;5.840;2023-08-06T01:50:13;8.07;;;4.95;;
6475;SDS011;3271;51.910;5.840;2023-08-06T01:52:39;7.32;;;5.18;;
6475;SDS011;3271;51.910;5.840;2023-08-06T01:55:05;7.53;;;5.63;;
6475;SDS011;3271;51.910;5.840;2023-08-06T01:57:31;6.32;;;5.22;;
6475;SDS011;3271;51.910;5.840;2023-08-06T01:59:57;6.13;;;5.53;;
6475;SDS011;3271;51.910;5.840;2023-08-06T02:02:23;6.38;;;5.47;;
6475;SDS011;3271;51.910;5.840;2023-08-06T02:04:49;7.72;;;5.50;;
6475;SDS011;3271;51.910;5.840;2023-08-06T02:07:14;6.28;;;5.60;;
6475;SDS011;3271;51.910;5.840;2023-08-06T02:09:40;5.63;;;5.13;;
6475;SDS011;3271;51.910;5.840;2023-08-06T02:12:06;6.20;;;5.25;;
6475;SDS011;3271;51.910;5.840;2023-08-06T02:14:33;7.20;;;5.50;;
6475;SDS011;3271;51.910;5.840;2023-08-06T02:17:00;5.65;;;5.13;;
6475;SDS011;3271;51.910;5.840;2023-08-06T02:19:26;7.25;;;6.25;;
6475;SDS011;3271;51.910;5.840;2023-08-06T02:21:51;6.22;;;5.50;;
6475;SDS011;3271;51.910;5.840;2023-08-06T02:24:17;6.30;;;4.88;;
6475;SDS011;3271;51.910;5.840;2023-08-06T02:26:43;7.47;;;5.30;;
6475;SDS011;3271;51.910;5.840;2023-08-06T02:29:09;6.35;;;5.18;;
6475;SDS011;3271;51.910;5.840;2023-08-06T02:31:35;6.35;;;5.50;;
6475;SDS011;3271;51.910;5.840;2023-08-06T02:34:01;6.20;;;5.55;;
6475;SDS011;3271;51.910;5.840;2023-08-06T02:36:27;6.38;;;5.78;;
6475;SDS011;3271;51.910;5.840;2023-08-06T02:38:54;7.53;;;6.28;;
6475;SDS011;3271;51.910;5.840;2023-08-06T02:41:20;6.15;;;5.60;;
6475;SDS011;3271;51.910;5.840;2023-08-06T02:43:46;6.68;;;5.78;;
6475;SDS011;3271;51.910;5.840;2023-08-06T02:46:12;6.18;;;5.32;;
6475;SDS011;3271;51.910;5.840;2023-08-06T02:48:38;11.40;;;7.40;;
6475;SDS011;3271;51.910;5.840;2023-08-06T02:51:04;8.63;;;6.47;;
6475;SDS011;3271;51.910;5.840;2023-08-06T02:53:30;7.35;;;6.45;;
6475;SDS011;3271;51.910;5.840;2023-08-06T02:55:56;7.07;;;6.38;;
6475;SDS011;3271;51.910;5.840;2023-08-06T02:58:23;8.48;;;6.50;;
6475;SDS011;3271;51.910;5.840;2023-08-06T03:00:59;6.53;;;5.85;;
6475;SDS011;3271;51.910;5.840;2023-08-06T03:03:26;7.20;;;6.50;;
6475;SDS011;3271;51.910;5.840;2023-08-06T03:05:52;7.10;;;5.72;;
6475;SDS011;3271;51.910;5.840;2023-08-06T03:08:18;7.70;;;6.28;;
6475;SDS011;3271;51.910;5.840;2023-08-06T03:10:47;6.45;;;5.82;;
6475;SDS011;3271;51.910;5.840;2023-08-06T03:13:13;6.93;;;6.25;;
6475;SDS011;3271;51.910;5.840;2023-08-06T03:15:39;7.07;;;6.38;;
6475;SDS011;3271;51.910;5.840;2023-08-06T03:18:05;9.02;;;6.45;;
6475;SDS011;3271;51.910;5.840;2023-08-06T03:20:34;8.45;;;6.22;;
6475;SDS011;3271;51.910;5.840;2023-08-06T03:23:00;7.35;;;6.65;;
6475;SDS011;3271;51.910;5.840;2023-08-06T03:25:25;7.15;;;6.25;;
6475;SDS011;3271;51.910;5.840;2023-08-06T03:27:51;7.25;;;5.65;;
6475;SDS011;3271;51.910;5.840;2023-08-06T03:30:17;8.68;;;6.88;;
6475;SDS011;3271;51.910;5.840;2023-08-06T03:32:43;6.97;;;6.35;;
6475;SDS011;3271;51.910;5.840;2023-08-06T03:35:09;7.97;;;6.05;;
6475;SDS011;3271;51.910;5.840;2023-08-06T03:37:35;8.48;;;7.40;;
6475;SDS011;3271;51.910;5.840;2023-08-06T03:40:01;7.15;;;6.40;;
6475;SDS011;3271;51.910;5.840;2023-08-06T03:42:28;9.68;;;7.45;;
6475;SDS011;3271;51.910;5.840;2023-08-06T03:44:53;8.05;;;6.65;;
6475;SDS011;3271;51.910;5.840;2023-08-06T03:47:19;7.85;;;7.07;;
6475;SDS011;3271;51.910;5.840;2023-08-06T03:49:45;7.60;;;6.90;;
6475;SDS011;3271;51.910;5.840;2023-08-06T03:52:11;9.02;;;7.32;;
6475;SDS011;3271;51.910;5.840;2023-08-06T03:54:37;9.90;;;6.55;;
6475;SDS011;3271;51.910;5.840;2023-08-06T03:57:04;8.38;;;7.57;;
6475;SDS011;3271;51.910;5.840;2023-08-06T03:59:30;9.50;;;7.18;;
6475;SDS011;3271;51.910;5.840;2023-08-06T04:01:56;7.35;;;6.65;;
6475;SDS011;3271;51.910;5.840;2023-08-06T04:04:22;7.45;;;6.75;;
6475;SDS011;3271;51.910;5.840;2023-08-06T04:06:47;7.90;;;7.18;;
6475;SDS011;3271;51.910;5.840;2023-08-06T04:09:13;9.07;;;7.25;;
6475;SDS011;3271;51.910;5.840;2023-08-06T04:11:39;8.30;;;7.50;;
6475;SDS011;3271;51.910;5.840;2023-08-06T04:14:05;8.50;;;7.70;;
6475;SDS011;3271;51.910;5.840;2023-08-06T04:16:31;7.95;;;7.18;;
6475;SDS011;3271;51.910;5.840;2023-08-06T04:18:57;8.88;;;7.40;;
6475;SDS011;3271;51.910;5.840;2023-08-06T04:21:23;10.73;;;7.18;;
6475;SDS011;3271;51.910;5.840;2023-08-06T04:23:49;8.48;;;6.57;;
6475;SDS011;3271;51.910;5.840;2023-08-06T04:26:15;7.50;;;6.80;;
6475;SDS011;3271;51.910;5.840;2023-08-06T04:28:41;8.13;;;7.25;;
6475;SDS011;3271;51.910;5.840;2023-08-06T04:31:07;9.00;;;7.60;;
6475;SDS011;3271;51.910;5.840;2023-08-06T04:33:33;8.23;;;7.13;;
6475;SDS011;3271;51.910;5.840;2023-08-06T04:35:59;9.18;;;7.28;;
6475;SDS011;3271;51.910;5.840;2023-08-06T04:38:26;7.38;;;6.68;;
6475;SDS011;3271;51.910;5.840;2023-08-06T04:40:52;7.30;;;6.57;;
6475;SDS011;3271;51.910;5.840;2023-08-06T04:43:18;8.15;;;6.45;;
6475;SDS011;3271;51.910;5.840;2023-08-06T04:45:53;7.18;;;6.53;;
6475;SDS011;3271;51.910;5.840;2023-08-06T04:48:20;7.22;;;6.53;;
6475;SDS011;3271;51.910;5.840;2023-08-06T04:50:46;9.85;;;7.13;;
6475;SDS011;3271;51.910;5.840;2023-08-06T04:53:12;7.90;;;7.10;;
6475;SDS011;3271;51.910;5.840;2023-08-06T04:55:38;7.32;;;6.60;;
6475;SDS011;3271;51.910;5.840;2023-08-06T04:58:04;8.75;;;7.15;;
6475;SDS011;3271;51.910;5.840;2023-08-06T05:00:30;8.30;;;7.47;;
6475;SDS011;3271;51.910;5.840;2023-08-06T05:02:56;8.18;;;6.90;;
6475;SDS011;3271;51.910;5.840;2023-08-06T05:05:22;8.23;;;7.00;;
6475;SDS011;3271;51.910;5.840;2023-08-06T05:07:48;9.13;;;7.70;;
6475;SDS011;3271;51.910;5.840;2023-08-06T05:10:15;8.07;;;6.82;;
6475;SDS011;3271;51.910;5.840;2023-08-06T05:12:41;8.45;;;7.00;;
6475;SDS011;3271;51.910;5.840;2023-08-06T05:15:07;8.10;;;7.30;;
6475;SDS011;3271;51.910;5.840;2023-08-06T05:17:33;7.57;;;6.93;;
6475;SDS011;3271;51.910;5.840;2023-08-06T05:19:59;11.00;;;7.05;;
6475;SDS011;3271;51.910;5.840;2023-08-06T05:22:25;8.13;;;7.35;;
6475;SDS011;3271;51.910;5.840;2023-08-06T05:24:51;9.07;;;7.50;;
6475;SDS011;3271;51.910;5.840;2023-08-06T05:27:17;8.30;;;6.43;;
6475;SDS011;3271;51.910;5.840;2023-08-06T05:29:46;9.13;;;7.13;;
6475;SDS011;3271;51.910;5.840;2023-08-06T05:32:12;7.40;;;6.70;;
6475;SDS011;3271;51.910;5.840;2023-08-06T05:34:37;8.70;;;6.97;;
6475;SDS011;3271;51.910;5.840;2023-08-06T05:37:04;9.25;;;7.90;;
6475;SDS011;3271;51.910;5.840;2023-08-06T05:39:30;7.75;;;7.05;;
6475;SDS011;3271;51.910;5.840;2023-08-06T05:41:56;7.60;;;6.85;;
6475;SDS011;3271;51.910;5.840;2023-08-06T05:44:23;9.25;;;7.65;;
6475;SDS011;3271;51.910;5.840;2023-08-06T05:46:49;9.05;;;7.25;;
6475;SDS011;3271;51.910;5.840;2023-08-06T05:49:15;8.57;;;7.10;;
6475;SDS011;3271;51.910;5.840;2023-08-06T05:51:41;8.48;;;7.68;;
6475;SDS011;3271;51.910;5.840;2023-08-06T05:54:07;7.63;;;6.82;;
6475;SDS011;3271;51.910;5.840;2023-08-06T05:56:33;8.70;;;7.45;;
6475;SDS011;3271;51.910;5.840;2023-08-06T05:58:59;8.15;;;7.25;;
6475;SDS011;3271;51.910;5.840;2023-08-06T06:01:25;8.55;;;7.53;;
6475;SDS011;3271;51.910;5.840;2023-08-06T06:03:51;8.07;;;7.38;;
6475;SDS011;3271;51.910;5.840;2023-08-06T06:06:17;8.35;;;7.55;;
6475;SDS011;3271;51.910;5.840;2023-08-06T06:08:44;9.35;;;7.20;;
6475;SDS011;3271;51.910;5.840;2023-08-06T06:11:10;8.88;;;8.02;;
6475;SDS011;3271;51.910;5.840;2023-08-06T06:13:36;8.18;;;7.38;;
6475;SDS011;3271;51.910;5.840;2023-08-06T06:16:02;8.50;;;7.68;;
6475;SDS011;3271;51.910;5.840;2023-08-06T06:18:27;8.02;;;7.20;;
6475;SDS011;3271;51.910;5.840;2023-08-06T06:20:53;8.05;;;7.30;;
6475;SDS011;3271;51.910;5.840;2023-08-06T06:23:19;9.43;;;8.00;;
6475;SDS011;3271;51.910;5.840;2023-08-06T06:25:49;9.02;;;8.15;;
6475;SDS011;3271;51.910;5.840;2023-08-06T06:28:16;8.55;;;7.65;;
6475;SDS011;3271;51.910;5.840;2023-08-06T06:30:42;8.23;;;7.38;;
6475;SDS011;3271;51.910;5.840;2023-08-06T06:33:08;8.35;;;7.55;;
6475;SDS011;3271;51.910;5.840;2023-08-06T06:35:34;8.75;;;7.85;;
6475;SDS011;3271;51.910;5.840;2023-08-06T06:38:00;9.10;;;6.85;;
6475;SDS011;3271;51.910;5.840;2023-08-06T06:40:27;7.05;;;6.35;;
6475;SDS011;3271;51.910;5.840;2023-08-06T06:42:53;7.60;;;6.82;;
6475;SDS011;3271;51.910;5.840;2023-08-06T06:45:19;8.10;;;7.40;;
6475;SDS011;3271;51.910;5.840;2023-08-06T06:47:45;9.75;;;8.77;;
6475;SDS011;3271;51.910;5.840;2023-08-06T06:50:11;10.02;;;9.02;;
6475;SDS011;3271;51.910;5.840;2023-08-06T06:52:37;10.77;;;9.10;;
6475;SDS011;3271;51.910;5.840;2023-08-06T06:55:03;9.65;;;8.65;;
6475;SDS011;3271;51.910;5.840;2023-08-06T06:57:29;10.70;;;9.60;;
6475;SDS011;3271;51.910;5.840;2023-08-06T06:59:55;10.15;;;9.13;;
6475;SDS011;3271;51.910;5.840;2023-08-06T07:02:21;11.02;;;9.70;;
6475;SDS011;3271;51.910;5.840;2023-08-06T07:04:47;10.68;;;9.68;;
6475;SDS011;3271;51.910;5.840;2023-08-06T07:07:13;10.88;;;9.82;;
6475;SDS011;3271;51.910;5.840;2023-08-06T07:09:39;8.90;;;8.10;;
6475;SDS011;3271;51.910;5.840;2023-08-06T07:12:05;10.90;;;9.82;;
6475;SDS011;3271;51.910;5.840;2023-08-06T07:14:31;10.50;;;9.38;;
6475;SDS011;3271;51.910;5.840;2023-08-06T07:16:57;11.63;;;10.15;;
6475;SDS011;3271;51.910;5.840;2023-08-06T07:19:23;10.35;;;9.35;;
6475;SDS011;3271;51.910;5.840;2023-08-06T07:21:49;13.57;;;8.63;;
6475;SDS011;3271;51.910;5.840;2023-08-06T07:24:15;10.30;;;8.98;;
6475;SDS011;3271;51.910;5.840;2023-08-06T07:26:41;10.40;;;9.13;;
6475;SDS011;3271;51.910;5.840;2023-08-06T07:29:07;10.52;;;9.50;;
6475;SDS011;3271;51.910;5.840;2023-08-06T07:31:33;10.40;;;9.40;;
6475;SDS011;3271;51.910;5.840;2023-08-06T07:33:59;12.85;;;10.25;;
6475;SDS011;3271;51.910;5.840;2023-08-06T07:36:25;11.80;;;10.32;;
6475;SDS011;3271;51.910;5.840;2023-08-06T07:38:51;11.88;;;10.68;;
6475;SDS011;3271;51.910;5.840;2023-08-06T07:41:21;11.82;;;10.63;;
6475;SDS011;3271;51.910;5.840;2023-08-06T07:43:46;11.70;;;10.52;;
6475;SDS011;3271;51.910;5.840;2023-08-06T07:46:12;13.90;;;10.27;;
6475;SDS011;3271;51.910;5.840;2023-08-06T07:48:38;11.95;;;10.27;;
6475;SDS011;3271;51.910;5.840;2023-08-06T07:51:04;10.93;;;9.73;;
6475;SDS011;3271;51.910;5.840;2023-08-06T07:53:30;9.23;;;8.23;;
6475;SDS011;3271;51.910;5.840;2023-08-06T07:55:56;9.48;;;8.57;;
6475;SDS011;3271;51.910;5.840;2023-08-06T07:58:23;9.13;;;8.23;;
6475;SDS011;3271;51.910;5.840;2023-08-06T08:00:49;9.50;;;8.60;;
6475;SDS011;3271;51.910;5.840;2023-08-06T08:03:16;9.80;;;8.90;;
6475;SDS011;3271;51.910;5.840;2023-08-06T08:05:42;9.77;;;8.77;;
6475;SDS011;3271;51.910;5.840;2023-08-06T08:08:08;10.07;;;9.07;;
6475;SDS011;3271;51.910;5.840;2023-08-06T08:10:34;9.80;;;8.75;;
6475;SDS011;3271;51.910;5.840;2023-08-06T08:13:01;9.32;;;8.32;;
6475;SDS011;3271;51.910;5.840;2023-08-06T08:15:28;10.20;;;9.20;;
6475;SDS011;3271;51.910;5.840;2023-08-06T08:17:54;8.45;;;7.65;;
6475;SDS011;3271;51.910;5.840;2023-08-06T08:20:20;9.98;;;8.98;;
6475;SDS011;3271;51.910;5.840;2023-08-06T08:22:46;10.20;;;9.20;;
6475;SDS011;3271;51.910;5.840;2023-08-06T08:25:12;9.25;;;8.38;;
6475;SDS011;3271;51.910;5.840;2023-08-06T08:27:38;9.30;;;8.40;;
6475;SDS011;3271;51.910;5.840;2023-08-06T08:30:04;9.57;;;8.68;;
6475;SDS011;3271;51.910;5.840;2023-08-06T08:32:30;10.75;;;9.65;;
6475;SDS011;3271;51.910;5.840;2023-08-06T08:34:56;10.43;;;9.18;;
6475;SDS011;3271;51.910;5.840;2023-08-06T08:37:22;10.43;;;9.40;;
6475;SDS011;3271;51.910;5.840;2023-08-06T08:39:49;9.50;;;7.95;;
6475;SDS011;3271;51.910;5.840;2023-08-06T08:42:15;9.20;;;8.30;;
6475;SDS011;3271;51.910;5.840;2023-08-06T08:44:41;9.68;;;8.77;;
6475;SDS011;3271;51.910;5.840;2023-08-06T08:47:08;9.82;;;8.88;;
6475;SDS011;3271;51.910;5.840;2023-08-06T08:49:34;17.88;;;9.05;;
6475;SDS011;3271;51.910;5.840;2023-08-06T08:52:01;9.80;;;8.27;;
6475;SDS011;3271;51.910;5.840;2023-08-06T08:54:28;9.15;;;8.25;;
6475;SDS011;3271;51.910;5.840;2023-08-06T08:56:56;9.95;;;9.05;;
6475;SDS011;3271;51.910;5.840;2023-08-06T08:59:22;9.73;;;8.27;;
6475;SDS011;3271;51.910;5.840;2023-08-06T09:01:48;9.50;;;8.50;;
6475;SDS011;3271;51.910;5.840;2023-08-06T09:04:18;30.38;;;27.30;;
6475;SDS011;3271;51.910;5.840;2023-08-06T09:06:45;38.83;;;33.53;;
6475;SDS011;3271;51.910;5.840;2023-08-06T09:09:12;45.28;;;38.97;;
6475;SDS011;3271;51.910;5.840;2023-08-06T09:11:39;13.82;;;12.45;;
6475;SDS011;3271;51.910;5.840;2023-08-06T09:14:08;11.18;;;10.07;;
6475;SDS011;3271;51.910;5.840;2023-08-06T09:16:34;10.18;;;8.75;;
6475;SDS011;3271;51.910;5.840;2023-08-06T09:19:06;8.90;;;8.10;;
6475;SDS011;3271;51.910;5.840;2023-08-06T09:21:32;9.77;;;8.15;;
6475;SDS011;3271;51.910;5.840;2023-08-06T09:23:58;9.60;;;8.13;;
6475;SDS011;3271;51.910;5.840;2023-08-06T09:26:32;8.98;;;8.07;;
6475;SDS011;3271;51.910;5.840;2023-08-06T09:28:58;8.07;;;7.28;;
6475;SDS011;3271;51.910;5.840;2023-08-06T09:31:28;5.80;;;5.20;;
6475;SDS011;3271;51.910;5.840;2023-08-06T09:33:59;1.50;;;1.40;;
6475;SDS011;3271;51.910;5.840;2023-08-06T09:36:28;1.30;;;1.20;;
6475;SDS011;3271;51.910;5.840;2023-08-06T09:38:54;1.33;;;1.23;;
6475;SDS011;3271;51.910;5.840;2023-08-06T09:41:29;1.58;;;1.30;;
6475;SDS011;3271;51.910;5.840;2023-08-06T09:43:55;1.38;;;1.27;;
6475;SDS011;3271;51.910;5.840;2023-08-06T09:46:21;1.55;;;1.45;;
6475;SDS011;3271;51.910;5.840;2023-08-06T09:48:47;2.25;;;1.30;;
6475;SDS011;3271;51.910;5.840;2023-08-06T09:51:14;1.42;;;1.33;;
6475;SDS011;3271;51.910;5.840;2023-08-06T09:53:40;1.30;;;1.20;;
6475;SDS011;3271;51.910;5.840;2023-08-06T09:56:06;1.58;;;0.98;;
6475;SDS011;3271;51.910;5.840;2023-08-06T09:58:34;1.50;;;1.40;;
6475;SDS011;3271;51.910;5.840;2023-08-06T10:01:00;1.02;;;1.02;;
6475;SDS011;3271;51.910;5.840;2023-08-06T10:03:27;1.30;;;1.20;;
6475;SDS011;3271;51.910;5.840;2023-08-06T10:05:55;1.50;;;1.40;;
6475;SDS011;3271;51.910;5.840;2023-08-06T10:08:21;1.40;;;1.30;;
6475;SDS011;3271;51.910;5.840;2023-08-06T10:10:47;1.33;;;1.23;;
6475;SDS011;3271;51.910;5.840;2023-08-06T10:13:13;1.35;;;1.20;;
6475;SDS011;3271;51.910;5.840;2023-08-06T10:15:40;2.95;;;1.65;;
6475;SDS011;3271;51.910;5.840;2023-08-06T10:18:06;1.90;;;1.20;;
6475;SDS011;3271;51.910;5.840;2023-08-06T10:20:34;6.78;;;5.18;;
6475;SDS011;3271;51.910;5.840;2023-08-06T10:23:01;8.63;;;6.55;;
6475;SDS011;3271;51.910;5.840;2023-08-06T10:25:30;7.32;;;6.10;;
6475;SDS011;3271;51.910;5.840;2023-08-06T10:27:57;1.85;;;1.73;;
6475;SDS011;3271;51.910;5.840;2023-08-06T10:32:53;2.97;;;1.85;;
6475;SDS011;3271;51.910;5.840;2023-08-06T10:36:01;2.10;;;1.90;;
6475;SDS011;3271;51.910;5.840;2023-08-06T10:38:14;1.95;;;1.50;;
6475;SDS011;3271;51.910;5.840;2023-08-06T10:40:41;2.53;;;1.70;;
6475;SDS011;3271;51.910;5.840;2023-08-06T10:43:07;2.72;;;1.85;;
6475;SDS011;3271;51.910;5.840;2023-08-06T10:45:50;3.45;;;1.83;;
6475;SDS011;3271;51.910;5.840;2023-08-06T10:48:28;1.85;;;1.75;;
6475;SDS011;3271;51.910;5.840;2023-08-06T10:50:54;2.92;;;1.70;;
6475;SDS011;3271;51.910;5.840;2023-08-06T10:53:20;3.17;;;2.10;;
6475;SDS011;3271;51.910;5.840;2023-08-06T10:55:46;2.03;;;1.70;;
6475;SDS011;3271;51.910;5.840;2023-08-06T10:58:14;4.13;;;1.67;;
6475;SDS011;3271;51.910;5.840;2023-08-06T11:00:41;2.15;;;1.95;;
6475;SDS011;3271;51.910;5.840;2023-08-06T11:03:07;2.63;;;2.30;;
6475;SDS011;3271;51.910;5.840;2023-08-06T11:05:34;2.35;;;2.08;;
6475;SDS011;3271;51.910;5.840;2023-08-06T11:08:00;2.63;;;2.30;;
6475;SDS011;3271;51.910;5.840;2023-08-06T11:10:26;2.38;;;2.17;;
6475;SDS011;3271;51.910;5.840;2023-08-06T11:12:52;2.20;;;2.00;;
6475;SDS011;3271;51.910;5.840;2023-08-06T11:15:19;3.10;;;2.72;;
6475;SDS011;3271;51.910;5.840;2023-08-06T11:17:45;2.90;;;2.60;;
6475;SDS011;3271;51.910;5.840;2023-08-06T11:20:12;3.17;;;2.83;;
6475;SDS011;3271;51.910;5.840;2023-08-06T11:22:38;3.10;;;2.67;;
6475;SDS011;3271;51.910;5.840;2023-08-06T11:25:05;3.00;;;2.55;;
6475;SDS011;3271;51.910;5.840;2023-08-06T11:27:31;4.90;;;2.88;;
6475;SDS011;3271;51.910;5.840;2023-08-06T11:29:57;3.40;;;3.13;;
6475;SDS011;3271;51.910;5.840;2023-08-06T11:32:23;2.78;;;2.58;;
6475;SDS011;3271;51.910;5.840;2023-08-06T11:34:49;4.28;;;3.25;;
6475;SDS011;3271;51.910;5.840;2023-08-06T11:37:15;3.20;;;2.83;;
6475;SDS011;3271;51.910;5.840;2023-08-06T11:39:44;3.58;;;2.78;;
6475;SDS011;3271;51.910;5.840;2023-08-06T11:42:11;8.73;;;3.47;;
6475;SDS011;3271;51.910;5.840;2023-08-06T11:44:38;4.82;;;2.92;;
6475;SDS011;3271;51.910;5.840;2023-08-06T11:47:04;4.18;;;3.05;;
6475;SDS011;3271;51.910;5.840;2023-08-06T11:54:45;9.25;;;7.55;;
6475;SDS011;3271;51.910;5.840;2023-08-06T11:57:11;21.35;;;18.50;;
6475;SDS011;3271;51.910;5.840;2023-08-06T11:59:38;5.30;;;3.85;;
6475;SDS011;3271;51.910;5.840;2023-08-06T12:02:04;4.15;;;3.20;;
6475;SDS011;3271;51.910;5.840;2023-08-06T12:07:17;3.38;;;2.90;;
6475;SDS011;3271;51.910;5.840;2023-08-06T12:09:43;3.30;;;3.00;;
6475;SDS011;3271;51.910;5.840;2023-08-06T12:12:09;10.02;;;2.95;;
6475;SDS011;3271;51.910;5.840;2023-08-06T12:14:36;7.35;;;2.90;;
6475;SDS011;3271;51.910;5.840;2023-08-06T12:17:02;4.30;;;2.70;;
6475;SDS011;3271;51.910;5.840;2023-08-06T12:19:28;4.68;;;3.03;;
6475;SDS011;3271;51.910;5.840;2023-08-06T12:21:55;3.47;;;3.17;;
6475;SDS011;3271;51.910;5.840;2023-08-06T12:24:21;3.72;;;2.83;;
6475;SDS011;3271;51.910;5.840;2023-08-06T12:26:47;2.80;;;2.50;;
6475;SDS011;3271;51.910;5.840;2023-08-06T12:29:12;3.33;;;2.58;;
6475;SDS011;3271;51.910;5.840;2023-08-06T12:31:38;7.32;;;3.05;;
6475;SDS011;3271;51.910;5.840;2023-08-06T12:34:04;4.05;;;3.13;;
6475;SDS011;3271;51.910;5.840;2023-08-06T12:36:30;3.03;;;2.72;;
6475;SDS011;3271;51.910;5.840;2023-08-06T12:38:56;3.20;;;2.88;;
6475;SDS011;3271;51.910;5.840;2023-08-06T12:41:22;2.80;;;2.58;;
6475;SDS011;3271;51.910;5.840;2023-08-06T12:43:48;4.00;;;3.70;;
6475;SDS011;3271;51.910;5.840;2023-08-06T12:46:14;4.50;;;3.47;;
6475;SDS011;3271;51.910;5.840;2023-08-06T12:48:40;3.50;;;2.60;;
6475;SDS011;3271;51.910;5.840;2023-08-06T12:51:06;3.83;;;2.92;;
6475;SDS011;3271;51.910;5.840;2023-08-06T12:53:32;2.53;;;2.28;;
6475;SDS011;3271;51.910;5.840;2023-08-06T12:55:57;9.85;;;8.82;;
6475;SDS011;3271;51.910;5.840;2023-08-06T12:58:23;11.77;;;9.27;;
6475;SDS011;3271;51.910;5.840;2023-08-06T13:00:49;5.13;;;4.63;;
6475;SDS011;3271;51.910;5.840;2023-08-06T13:03:15;4.18;;;3.70;;
6475;SDS011;3271;51.910;5.840;2023-08-06T13:05:42;3.40;;;2.58;;
6475;SDS011;3271;51.910;5.840;2023-08-06T13:08:09;3.72;;;2.42;;
6475;SDS011;3271;51.910;5.840;2023-08-06T13:10:35;2.95;;;2.08;;
6475;SDS011;3271;51.910;5.840;2023-08-06T13:13:01;2.88;;;2.22;;
6475;SDS011;3271;51.910;5.840;2023-08-06T13:15:27;3.00;;;2.33;;
6475;SDS011;3271;51.910;5.840;2023-08-06T13:17:52;4.90;;;2.00;;
6475;SDS011;3271;51.910;5.840;2023-08-06T13:20:18;2.15;;;1.95;;
6475;SDS011;3271;51.910;5.840;2023-08-06T13:22:45;2.08;;;1.92;;
6475;SDS011;3271;51.910;5.840;2023-08-06T13:25:11;3.42;;;2.17;;
6475;SDS011;3271;51.910;5.840;2023-08-06T13:27:39;2.47;;;1.80;;
6475;SDS011;3271;51.910;5.840;2023-08-06T13:30:06;3.58;;;2.10;;
6475;SDS011;3271;51.910;5.840;2023-08-06T13:32:32;2.58;;;1.95;;
6475;SDS011;3271;51.910;5.840;2023-08-06T13:34:58;2.65;;;2.00;;
6475;SDS011;3271;51.910;5.840;2023-08-06T13:37:24;2.30;;;1.90;;
6475;SDS011;3271;51.910;5.840;2023-08-06T13:39:50;1.75;;;1.63;;
6475;SDS011;3271;51.910;5.840;2023-08-06T13:42:16;5.95;;;1.70;;
6475;SDS011;3271;51.910;5.840;2023-08-06T13:44:42;2.55;;;1.70;;
6475;SDS011;3271;51.910;5.840;2023-08-06T13:47:08;4.43;;;2.65;;
6475;SDS011;3271;51.910;5.840;2023-08-06T13:49:34;3.38;;;1.63;;
6475;SDS011;3271;51.910;5.840;2023-08-06T13:52:00;1.88;;;1.77;;
6475;SDS011;3271;51.910;5.840;2023-08-06T13:54:26;1.90;;;1.50;;
6475;SDS011;3271;51.910;5.840;2023-08-06T13:56:52;2.95;;;1.63;;
6475;SDS011;3271;51.910;5.840;2023-08-06T13:59:18;1.80;;;1.33;;
6475;SDS011;3271;51.910;5.840;2023-08-06T14:01:44;3.00;;;1.60;;
6475;SDS011;3271;51.910;5.840;2023-08-06T14:04:11;1.98;;;1.70;;
6475;SDS011;3271;51.910;5.840;2023-08-06T14:06:37;1.65;;;1.48;;
6475;SDS011;3271;51.910;5.840;2023-08-06T14:09:03;1.70;;;1.60;;
6475;SDS011;3271;51.910;5.840;2023-08-06T14:11:29;3.83;;;1.52;;
6475;SDS011;3271;51.910;5.840;2023-08-06T14:13:55;2.30;;;1.40;;
6475;SDS011;3271;51.910;5.840;2023-08-06T14:16:21;3.05;;;2.10;;
6475;SDS011;3271;51.910;5.840;2023-08-06T14:18:47;3.53;;;1.90;;
6475;SDS011;3271;51.910;5.840;2023-08-06T14:21:13;4.28;;;2.05;;
6475;SDS011;3271;51.910;5.840;2023-08-06T14:23:39;2.47;;;1.67;;
6475;SDS011;3271;51.910;5.840;2023-08-06T14:26:06;3.38;;;1.77;;
6475;SDS011;3271;51.910;5.840;2023-08-06T14:28:32;1.92;;;1.73;;
6475;SDS011;3271;51.910;5.840;2023-08-06T14:30:59;1.98;;;1.77;;
6475;SDS011;3271;51.910;5.840;2023-08-06T14:33:25;3.17;;;1.70;;
6475;SDS011;3271;51.910;5.840;2023-08-06T14:35:50;2.40;;;1.90;;
6475;SDS011;3271;51.910;5.840;2023-08-06T14:38:16;1.77;;;1.63;;
6475;SDS011;3271;51.910;5.840;2023-08-06T14:40:43;3.72;;;1.70;;
6475;SDS011;3271;51.910;5.840;2023-08-06T14:43:09;2.97;;;1.83;;
6475;SDS011;3271;51.910;5.840;2023-08-06T14:45:38;2.58;;;1.40;;
6475;SDS011;3271;51.910;5.840;2023-08-06T14:48:04;2.47;;;1.80;;
6475;SDS011;3271;51.910;5.840;2023-08-06T14:50:30;2.92;;;1.75;;
6475;SDS011;3271;51.910;5.840;2023-08-06T14:52:56;1.55;;;1.45;;
6475;SDS011;3271;51.910;5.840;2023-08-06T14:55:25;2.63;;;2.00;;
6475;SDS011;3271;51.910;5.840;2023-08-06T14:57:51;2.58;;;1.98;;
6475;SDS011;3271;51.910;5.840;2023-08-06T15:00:18;2.67;;;1.73;;
6475;SDS011;3271;51.910;5.840;2023-08-06T15:02:44;2.00;;;1.67;;
6475;SDS011;3271;51.910;5.840;2023-08-06T15:05:10;1.48;;;1.38;;
6475;SDS011;3271;51.910;5.840;2023-08-06T15:07:36;3.67;;;2.00;;
6475;SDS011;3271;51.910;5.840;2023-08-06T15:10:02;2.10;;;1.75;;
6475;SDS011;3271;51.910;5.840;2023-08-06T15:12:28;2.95;;;2.20;;
6475;SDS011;3271;51.910;5.840;2023-08-06T15:14:54;3.38;;;1.85;;
6475;SDS011;3271;51.910;5.840;2023-08-06T15:17:23;3.33;;;2.85;;
6475;SDS011;3271;51.910;5.840;2023-08-06T15:19:51;2.92;;;2.10;;
6475;SDS011;3271;51.910;5.840;2023-08-06T15:22:17;3.80;;;2.83;;
6475;SDS011;3271;51.910;5.840;2023-08-06T15:24:43;4.30;;;1.85;;